Time;durP1;ratioP1;P1;durP2;ratioP2;P2;SDS_P1;SDS_P2;PMS_P1;PMS_P2;Temp;Humidity;BMP_temperature;BMP_pressure;BME280_temperature;BME280_humidity;BME280_pressure;Samples;Min_cycle;Max_cycle;Signal;HPM_P1;HPM_P2
2021/05/19 00:01:51;;;;;;;1.08;0.57;;;;;;;;;;5110498;28;20503;-69
2021/05/19 00:06:19;;;;;;;1.17;0.70;;;;;;;;;;5070188;28;20884;-70
2021/05/19 00:08:45;;;;;;;3.90;0.90;;;;;;;;;;5070389;28;20028;-70
2021/05/19 00:11:11;;;;;;;1.65;0.77;;;;;;;;;;5069429;28;20082;-70
2021/05/19 00:13:38;;;;;;;2.55;1.13;;;;;;;;;;5069908;28;20028;-69
2021/05/19 00:19:17;;;;;;;2.10;0.80;;;;;;;;;;5110185;27;20955;-69
2021/05/19 00:21:44;;;;;;;1.80;0.70;;;;;;;;;;5110550;28;20036;-69
2021/05/19 00:24:10;;;;;;;6.00;1.00;;;;;;;;;;5110561;28;20023;-69
2021/05/19 00:27:52;;;;;;;2.47;0.93;;;;;;;;;;5110444;27;20945;-69
2021/05/19 00:32:48;;;;;;;0.90;0.50;;;;;;;;;;5110126;27;20896;-71
2021/05/19 00:35:15;;;;;;;1.15;0.70;;;;;;;;;;5110378;28;20020;-69
2021/05/19 00:37:41;;;;;;;2.38;0.60;;;;;;;;;;5110397;28;20096;-69
2021/05/19 00:41:24;;;;;;;0.95;0.63;;;;;;;;;;5110658;27;20388;-70
2021/05/19 00:43:50;;;;;;;1.42;0.60;;;;;;;;;;5110709;28;20028;-70
2021/05/19 00:46:17;;;;;;;3.13;0.80;;;;;;;;;;5110044;28;20553;-70
2021/05/19 00:48:43;;;;;;;1.02;0.68;;;;;;;;;;5110711;28;20035;-70
2021/05/19 00:52:47;;;;;;;1.77;0.80;;;;;;;;;;5110593;27;20441;-69
2021/05/19 00:55:14;;;;;;;0.82;0.52;;;;;;;;;;5110146;28;20028;-69
2021/05/19 00:58:59;;;;;;;2.15;0.70;;;;;;;;;;5110506;27;20385;-70
2021/05/19 01:01:25;;;;;;;1.08;0.60;;;;;;;;;;5110342;28;20054;-70
2021/05/19 01:03:52;;;;;;;4.88;1.00;;;;;;;;;;5110698;28;20024;-69
2021/05/19 01:06:23;;;;;;;3.90;1.50;;;;;;;;;;5110335;28;20016;-69
2021/05/19 01:11:34;;;;;;;4.38;0.98;;;;;;;;;;5110620;28;20093;-70
2021/05/19 01:14:00;;;;;;;2.00;0.75;;;;;;;;;;5109008;28;20383;-69
2021/05/19 01:16:26;;;;;;;3.42;1.00;;;;;;;;;;5110204;28;20034;-69
2021/05/19 01:18:53;;;;;;;3.65;1.08;;;;;;;;;;5110177;28;20032;-69
2021/05/19 01:22:30;;;;;;;2.10;1.02;;;;;;;;;;5110502;27;20385;-69
2021/05/19 01:25:37;;;;;;;3.03;1.33;;;;;;;;;;5110469;27;20159;-69
2021/05/19 01:28:22;;;;;;;2.47;0.85;;;;;;;;;;5110028;27;20445;-69
2021/05/19 01:30:49;;;;;;;1.83;0.70;;;;;;;;;;5110469;28;20395;-69
2021/05/19 01:33:15;;;;;;;2.15;1.05;;;;;;;;;;5110424;28;20031;-69
2021/05/19 01:35:41;;;;;;;2.90;1.17;;;;;;;;;;5108731;28;20514;-69
2021/05/19 01:38:08;;;;;;;2.40;1.00;;;;;;;;;;5110290;28;20103;-70
2021/05/19 01:40:35;;;;;;;2.58;0.80;;;;;;;;;;5110469;28;20480;-69
2021/05/19 01:43:02;;;;;;;1.52;1.05;;;;;;;;;;5108872;28;20031;-69
2021/05/19 01:45:29;;;;;;;2.42;1.00;;;;;;;;;;5108888;28;20031;-69
2021/05/19 01:47:55;;;;;;;1.98;1.02;;;;;;;;;;5110082;28;20373;-69
2021/05/19 01:50:25;;;;;;;3.88;1.50;;;;;;;;;;5109667;28;20084;-69
2021/05/19 01:52:52;;;;;;;1.80;0.90;;;;;;;;;;5110065;28;20034;-69
2021/05/19 01:55:19;;;;;;;5.20;1.23;;;;;;;;;;5108762;28;20027;-70
2021/05/19 01:57:45;;;;;;;2.35;1.00;;;;;;;;;;5109425;28;20413;-70
2021/05/19 02:00:13;;;;;;;3.47;1.00;;;;;;;;;;5110084;28;20066;-69
2021/05/19 02:02:40;;;;;;;2.55;0.90;;;;;;;;;;5108638;28;20540;-69
2021/05/19 02:05:06;;;;;;;1.40;0.80;;;;;;;;;;5108257;28;20050;-69
2021/05/19 02:07:36;;;;;;;3.08;1.08;;;;;;;;;;5108452;28;20034;-69
2021/05/19 02:10:04;;;;;;;2.03;0.90;;;;;;;;;;5108404;28;20411;-70
2021/05/19 02:12:30;;;;;;;3.20;1.02;;;;;;;;;;5109304;28;20064;-69
2021/05/19 02:14:57;;;;;;;2.28;1.00;;;;;;;;;;5109637;28;20025;-69
2021/05/19 02:17:25;;;;;;;1.50;0.77;;;;;;;;;;5109261;28;20032;-69
2021/05/19 02:19:52;;;;;;;1.60;0.70;;;;;;;;;;5108522;28;20044;-70
2021/05/19 02:22:18;;;;;;;2.03;0.90;;;;;;;;;;5109756;28;20020;-70
2021/05/19 02:24:44;;;;;;;5.28;0.80;;;;;;;;;;5109107;28;20048;-69
2021/05/19 02:27:10;;;;;;;4.07;0.70;;;;;;;;;;5107911;28;20053;-70
2021/05/19 02:29:37;;;;;;;2.30;1.00;;;;;;;;;;5109741;28;20043;-70
2021/05/19 02:32:03;;;;;;;1.20;0.50;;;;;;;;;;5107749;28;20031;-69
2021/05/19 02:34:30;;;;;;;1.30;0.60;;;;;;;;;;5107962;28;20024;-70
2021/05/19 02:36:56;;;;;;;2.80;0.88;;;;;;;;;;5109252;28;20437;-70
2021/05/19 02:39:22;;;;;;;1.48;0.80;;;;;;;;;;5096981;28;20024;-70
2021/05/19 02:41:49;;;;;;;1.92;1.00;;;;;;;;;;5095832;28;20439;-70
2021/05/19 02:44:15;;;;;;;0.95;0.60;;;;;;;;;;5095451;28;20508;-69
2021/05/19 02:46:41;;;;;;;2.78;0.95;;;;;;;;;;5095039;28;20496;-69
2021/05/19 02:49:07;;;;;;;1.55;0.80;;;;;;;;;;5095370;28;20143;-70
2021/05/19 02:51:37;;;;;;;2.58;0.95;;;;;;;;;;5095376;28;20016;-69
2021/05/19 02:54:05;;;;;;;1.27;0.57;;;;;;;;;;5094940;28;20047;-71
2021/05/19 02:56:31;;;;;;;0.75;0.60;;;;;;;;;;5095346;28;20105;-70
2021/05/19 02:58:58;;;;;;;3.47;1.42;;;;;;;;;;5095474;28;20024;-70
2021/05/19 03:01:24;;;;;;;4.90;1.13;;;;;;;;;;5093681;28;20028;-70
2021/05/19 03:03:50;;;;;;;1.75;0.90;;;;;;;;;;5095061;28;20473;-70
2021/05/19 03:06:16;;;;;;;2.25;1.15;;;;;;;;;;5093840;28;20024;-70
2021/05/19 03:45:26;;;;;;;3.03;0.98;;;;;;;;;;5093185;28;20118;-70
2021/05/19 03:47:53;;;;;;;3.13;0.80;;;;;;;;;;5094209;28;20083;-70
2021/05/19 03:50:20;;;;;;;1.95;1.02;;;;;;;;;;5092811;28;20472;-70
2021/05/19 03:52:47;;;;;;;2.88;0.85;;;;;;;;;;5092975;28;20028;-70
2021/05/19 03:55:14;;;;;;;1.60;0.82;;;;;;;;;;5092823;28;20418;-70
2021/05/19 03:57:40;;;;;;;1.92;0.93;;;;;;;;;;5092349;28;20024;-71
2021/05/19 04:00:08;;;;;;;2.03;1.00;;;;;;;;;;5092875;28;20043;-71
2021/05/19 04:02:34;;;;;;;1.30;0.98;;;;;;;;;;5094012;28;20469;-73
2021/05/19 04:05:00;;;;;;;6.28;1.00;;;;;;;;;;5093534;28;20054;-71
2021/05/19 04:07:26;;;;;;;1.73;0.80;;;;;;;;;;5093732;28;20040;-71
2021/05/19 04:09:52;;;;;;;6.65;3.35;;;;;;;;;;5092178;28;20365;-72
2021/05/19 04:12:18;;;;;;;3.80;1.48;;;;;;;;;;5094094;28;20077;-71
2021/05/19 04:14:45;;;;;;;2.88;1.08;;;;;;;;;;5093805;28;20048;-70
2021/05/19 04:17:11;;;;;;;3.08;1.10;;;;;;;;;;5093303;28;20036;-71
2021/05/19 04:19:37;;;;;;;3.00;1.25;;;;;;;;;;5093868;28;20481;-70
2021/05/19 04:22:03;;;;;;;1.75;0.90;;;;;;;;;;5092521;28;20028;-71
2021/05/19 04:24:29;;;;;;;2.45;1.13;;;;;;;;;;5093137;28;20048;-70
2021/05/19 04:26:55;;;;;;;3.08;1.05;;;;;;;;;;5093499;28;20081;-70
2021/05/19 04:29:22;;;;;;;3.17;1.13;;;;;;;;;;5094113;28;20016;-70
2021/05/19 04:31:48;;;;;;;2.53;1.02;;;;;;;;;;5091742;28;20027;-71
2021/05/19 04:34:14;;;;;;;4.90;1.95;;;;;;;;;;5093375;28;20020;-71
2021/05/19 04:36:40;;;;;;;6.53;2.10;;;;;;;;;;5093342;28;20099;-71
2021/05/19 04:39:07;;;;;;;6.22;2.13;;;;;;;;;;5091709;28;20024;-71
2021/05/19 04:41:33;;;;;;;5.35;1.70;;;;;;;;;;5093514;28;20338;-71
2021/05/19 04:44:00;;;;;;;2.65;1.52;;;;;;;;;;5093055;28;20044;-71
2021/05/19 04:46:26;;;;;;;3.17;1.50;;;;;;;;;;5092717;28;20107;-71
2021/05/19 04:48:54;;;;;;;3.67;1.35;;;;;;;;;;5093112;28;20384;-71
2021/05/19 04:51:21;;;;;;;2.95;1.30;;;;;;;;;;5091728;28;20032;-71
2021/05/19 04:53:47;;;;;;;3.65;1.15;;;;;;;;;;5092668;28;20020;-71
2021/05/19 04:56:13;;;;;;;4.68;1.40;;;;;;;;;;5093072;28;20091;-70
2021/05/19 04:58:39;;;;;;;5.75;1.75;;;;;;;;;;5091772;28;20027;-71
2021/05/19 05:01:05;;;;;;;5.25;1.20;;;;;;;;;;5092420;28;20433;-70
2021/05/19 05:07:40;;;;;;;3.30;1.20;;;;;;;;;;5130518;27;20601;-66
2021/05/19 05:10:52;;;;;;;2.67;1.00;;;;;;;;;;5110436;27;20381;-66
2021/05/19 05:13:18;;;;;;;4.65;1.25;;;;;;;;;;5110082;28;20028;-66
2021/05/19 05:15:44;;;;;;;2.47;0.80;;;;;;;;;;5108767;28;20565;-69
2021/05/19 05:19:07;;;;;;;1.83;0.82;;;;;;;;;;5107599;27;20892;-66
2021/05/19 05:21:33;;;;;;;1.48;0.98;;;;;;;;;;5102540;28;20059;-64
2021/05/19 05:24:00;;;;;;;2.95;1.02;;;;;;;;;;5104264;28;20020;-64
2021/05/19 05:27:15;;;;;;;5.65;1.23;;;;;;;;;;5105314;27;20384;-67
2021/05/19 05:30:35;;;;;;;7.85;1.48;;;;;;;;;;5108433;27;20430;-67
2021/05/19 05:33:01;;;;;;;2.17;1.15;;;;;;;;;;5108481;28;20028;-67
2021/05/19 05:35:27;;;;;;;4.55;1.20;;;;;;;;;;5107594;28;20058;-68
2021/05/19 05:37:53;;;;;;;4.35;1.98;;;;;;;;;;5107093;28;20035;-67
2021/05/19 05:40:20;;;;;;;2.50;1.20;;;;;;;;;;5108007;28;20085;-65
2021/05/19 05:42:46;;;;;;;3.15;1.13;;;;;;;;;;5106738;28;20020;-67
2021/05/19 05:46:00;;;;;;;3.05;1.10;;;;;;;;;;5108153;27;20381;-67
2021/05/19 05:48:26;;;;;;;4.65;1.65;;;;;;;;;;5105490;28;20103;-68
2021/05/19 05:50:53;;;;;;;5.38;1.42;;;;;;;;;;5106612;28;20028;-68
2021/05/19 05:53:19;;;;;;;5.10;2.17;;;;;;;;;;5109121;28;20042;-67
2021/05/19 05:55:45;;;;;;;2.42;1.00;;;;;;;;;;5108959;28;20023;-69
2021/05/19 05:58:12;;;;;;;5.25;1.77;;;;;;;;;;5108049;28;20070;-68
2021/05/19 06:00:39;;;;;;;4.97;1.95;;;;;;;;;;5090097;28;20020;-68
2021/05/19 06:03:07;;;;;;;7.57;2.25;;;;;;;;;;5086778;28;20561;-69
2021/05/19 06:06:28;;;;;;;3.55;1.73;;;;;;;;;;5085961;27;20420;-72
2021/05/19 06:10:03;;;;;;;3.67;1.33;;;;;;;;;;5086436;27;20830;-72
2021/05/19 06:12:29;;;;;;;2.75;0.98;;;;;;;;;;5084461;28;20024;-71
2021/05/19 06:14:55;;;;;;;3.83;1.20;;;;;;;;;;5083680;28;20403;-74
2021/05/19 06:17:25;;;;;;;2.67;1.13;;;;;;;;;;5110033;28;20012;-73
2021/05/19 06:19:51;;;;;;;2.83;1.02;;;;;;;;;;5107388;28;20105;-73
2021/05/19 06:22:17;;;;;;;2.33;0.85;;;;;;;;;;5106066;28;20028;-74
2021/05/19 06:26:12;;;;;;;4.65;1.25;;;;;;;;;;5106984;27;20442;-72
2021/05/19 06:30:40;;;;;;;2.60;1.00;;;;;;;;;;5108719;27;20385;-73
2021/05/19 06:33:06;;;;;;;9.40;2.00;;;;;;;;;;5107816;28;20032;-74
2021/05/19 06:35:32;;;;;;;1.15;0.80;;;;;;;;;;5109115;28;20032;-78
2021/05/19 06:38:41;;;;;;;2.97;0.98;;;;;;;;;;5048578;28;20451;-72
2021/05/19 06:41:08;;;;;;;5.05;1.05;;;;;;;;;;5050892;28;20367;-72
2021/05/19 06:43:34;;;;;;;3.60;1.40;;;;;;;;;;5047660;28;20028;-72
2021/05/19 06:46:00;;;;;;;2.63;1.15;;;;;;;;;;5047707;28;20045;-73
2021/05/19 06:48:27;;;;;;;2.05;0.80;;;;;;;;;;5049232;28;20043;-73
2021/05/19 06:50:53;;;;;;;1.73;0.80;;;;;;;;;;5048959;28;20017;-72
2021/05/19 06:54:01;;;;;;;1.55;0.70;;;;;;;;;;5069353;28;20384;-72
2021/05/19 06:56:30;;;;;;;1.55;0.68;;;;;;;;;;5068422;28;20021;-71
2021/05/19 07:02:15;;;;;;;1.75;0.55;;;;;;;;;;5171953;27;20373;-72
2021/05/19 07:06:22;;;;;;;3.92;1.17;;;;;;;;;;5109405;27;20904;-68
2021/05/19 07:08:50;;;;;;;2.70;1.13;;;;;;;;;;5109577;28;20056;-67
2021/05/19 07:11:16;;;;;;;3.10;0.70;;;;;;;;;;5105720;28;20051;-68
2021/05/19 07:13:42;;;;;;;4.57;1.15;;;;;;;;;;5107137;28;20103;-66
2021/05/19 07:16:54;;;;;;;3.50;1.05;;;;;;;;;;5108145;27;20381;-66
2021/05/19 07:19:24;;;;;;;2.08;0.73;;;;;;;;;;5106402;28;20396;-66
2021/05/19 07:21:51;;;;;;;4.78;0.85;;;;;;;;;;5108396;28;20021;-68
2021/05/19 07:24:17;;;;;;;4.43;1.35;;;;;;;;;;5106725;28;20072;-68
2021/05/19 07:28:31;;;;;;;2.72;0.82;;;;;;;;;;5109442;27;20460;-67
2021/05/19 07:30:57;;;;;;;1.98;0.95;;;;;;;;;;5105828;28;20028;-67
2021/05/19 07:33:23;;;;;;;1.75;0.80;;;;;;;;;;5109282;28;20512;-68
2021/05/19 07:35:49;;;;;;;4.60;1.13;;;;;;;;;;5109377;28;20106;-69
2021/05/19 07:38:15;;;;;;;1.77;0.90;;;;;;;;;;5109030;28;20054;-67
2021/05/19 07:40:42;;;;;;;2.72;0.93;;;;;;;;;;5106799;28;20024;-67
2021/05/19 07:43:08;;;;;;;2.08;1.10;;;;;;;;;;5108971;28;20071;-68
2021/05/19 07:48:10;;;;;;;3.22;0.77;;;;;;;;;;5109686;27;20422;-67
2021/05/19 07:51:49;;;;;;;2.35;0.80;;;;;;;;;;5068706;28;20388;-68
2021/05/19 07:57:53;;;;;;;3.53;0.90;;;;;;;;;;5109626;28;20102;-69
2021/05/19 08:02:52;;;;;;;3.55;0.68;;;;;;;;;;5108314;28;20241;-67
2021/05/19 08:07:09;;;;;;;3.25;1.48;;;;;;;;;;5108861;27;20440;-68
2021/05/19 08:09:35;;;;;;;4.78;1.63;;;;;;;;;;5103346;28;20028;-67
2021/05/19 08:12:01;;;;;;;2.90;0.63;;;;;;;;;;5108453;28;20048;-67
2021/05/19 08:14:29;;;;;;;2.28;0.63;;;;;;;;;;5107042;28;20032;-68
2021/05/19 08:16:58;;;;;;;3.42;1.20;;;;;;;;;;5108649;28;20061;-68
2021/05/19 08:21:07;;;;;;;2.53;0.65;;;;;;;;;;5105604;27;20406;-71
2021/05/19 08:23:33;;;;;;;0.88;0.55;;;;;;;;;;5114420;28;20101;-71
2021/05/19 08:26:00;;;;;;;2.00;0.60;;;;;;;;;;5128033;28;20020;-72
2021/05/19 08:28:26;;;;;;;0.95;0.52;;;;;;;;;;5126202;28;20728;-72
2021/05/19 08:31:11;;;;;;;2.28;0.57;;;;;;;;;;5107550;27;20385;-74
2021/05/19 08:33:37;;;;;;;5.25;1.08;;;;;;;;;;5107624;28;20050;-72
2021/05/19 08:36:55;;;;;;;3.05;1.08;;;;;;;;;;5107287;27;20442;-73
2021/05/19 08:40:17;;;;;;;8.80;0.85;;;;;;;;;;5107805;27;20442;-72
2021/05/19 08:44:00;;;;;;;0.75;0.40;;;;;;;;;;5171701;27;20377;-72
2021/05/19 08:46:27;;;;;;;1.30;0.70;;;;;;;;;;5152797;27;20375;-72
2021/05/19 08:49:00;;;;;;;6.07;1.92;;;;;;;;;;5152384;27;20030;-72
2021/05/19 08:53:17;;;;;;;2.60;0.80;;;;;;;;;;5109179;27;20384;-72
2021/05/19 08:55:43;;;;;;;5.07;1.10;;;;;;;;;;5106971;28;20032;-71
2021/05/19 08:58:10;;;;;;;2.15;0.60;;;;;;;;;;5109075;28;20028;-72
2021/05/19 09:00:36;;;;;;;3.85;1.45;;;;;;;;;;5108326;28;20028;-71
2021/05/19 09:03:08;;;;;;;3.80;1.00;;;;;;;;;;5108602;28;20028;-72
2021/05/19 09:05:35;;;;;;;2.53;0.70;;;;;;;;;;5104274;28;20348;-75
2021/05/19 09:08:09;;;;;;;6.13;0.70;;;;;;;;;;5109307;28;20521;-74
2021/05/19 09:10:36;;;;;;;1.42;0.50;;;;;;;;;;5108665;28;20016;-73
2021/05/19 09:13:03;;;;;;;1.95;0.77;;;;;;;;;;5106084;28;20491;-74
2021/05/19 09:15:45;;;;;;;1.73;0.50;;;;;;;;;;5107799;28;20050;-72
2021/05/19 09:18:12;;;;;;;1.73;0.40;;;;;;;;;;5109034;28;20422;-80
2021/05/19 09:20:45;;;;;;;2.80;0.52;;;;;;;;;;5107284;28;20032;-74
2021/05/19 09:24:11;;;;;;;0.80;0.43;;;;;;;;;;5129462;27;20316;-76
2021/05/19 09:26:57;;;;;;;2.25;0.70;;;;;;;;;;5128170;27;20032;-75
2021/05/19 09:29:25;;;;;;;4.25;0.52;;;;;;;;;;5127467;28;20106;-72
2021/05/19 09:32:01;;;;;;;1.05;0.40;;;;;;;;;;5129387;27;20019;-75
2021/05/19 09:34:31;;;;;;;0.50;0.40;;;;;;;;;;5128959;28;20160;-74
2021/05/19 09:37:13;;;;;;;1.00;0.45;;;;;;;;;;5118061;27;20020;-75
2021/05/19 09:39:53;;;;;;;1.73;0.50;;;;;;;;;;5117574;28;20027;-75
2021/05/19 09:42:21;;;;;;;4.95;1.00;;;;;;;;;;5128207;28;20039;-74
2021/05/19 09:44:49;;;;;;;3.25;0.60;;;;;;;;;;5128996;28;20111;-76
2021/05/19 09:47:35;;;;;;;3.17;0.50;;;;;;;;;;5130057;27;20551;-78
2021/05/19 09:50:01;;;;;;;3.30;0.50;;;;;;;;;;5128358;28;20051;-75
2021/05/19 09:52:28;;;;;;;3.90;0.47;;;;;;;;;;5129832;28;20023;-76
2021/05/19 09:55:01;;;;;;;3.17;0.52;;;;;;;;;;5128193;28;20031;-75
2021/05/19 09:57:40;;;;;;;1.92;0.70;;;;;;;;;;5129531;28;20433;-76
2021/05/19 10:00:07;;;;;;;0.82;0.50;;;;;;;;;;5124151;27;20077;-76
2021/05/19 10:02:35;;;;;;;1.90;0.20;;;;;;;;;;5127299;27;20055;-72
2021/05/19 10:05:10;;;;;;;2.05;0.60;;;;;;;;;;5113494;27;20380;-76
2021/05/19 10:07:38;;;;;;;5.80;1.13;;;;;;;;;;5068108;28;20403;-74
2021/05/19 10:10:05;;;;;;;2.58;0.50;;;;;;;;;;5068187;28;20033;-78
2021/05/19 10:12:33;;;;;;;3.20;0.70;;;;;;;;;;5069235;28;20027;-75
2021/05/19 10:15:22;;;;;;;1.30;0.55;;;;;;;;;;5150324;27;20312;-76
2021/05/19 10:17:50;;;;;;;4.03;0.52;;;;;;;;;;5130278;27;20126;-75
2021/05/19 10:20:18;;;;;;;4.68;0.50;;;;;;;;;;5130678;28;20417;-77
2021/05/19 10:22:47;;;;;;;1.75;0.45;;;;;;;;;;5124749;28;20024;-75
2021/05/19 10:25:41;;;;;;;1.80;0.52;;;;;;;;;;5106628;28;20016;-81
2021/05/19 10:28:10;;;;;;;1.95;0.45;;;;;;;;;;5107788;28;20063;-77
2021/05/19 10:30:47;;;;;;;1.27;0.40;;;;;;;;;;5115120;28;20403;-77
2021/05/19 10:34:08;;;;;;;0.90;0.30;;;;;;;;;;5110903;27;20442;-76
2021/05/19 10:36:36;;;;;;;1.05;0.40;;;;;;;;;;5110463;28;20590;-80
2021/05/19 10:39:11;;;;;;;2.63;0.68;;;;;;;;;;5107642;28;20020;-77
2021/05/19 10:41:38;;;;;;;1.65;0.65;;;;;;;;;;5110080;28;20024;-76
2021/05/19 10:44:08;;;;;;;2.75;0.98;;;;;;;;;;5109530;28;20048;-76
2021/05/19 10:46:57;;;;;;;2.15;0.60;;;;;;;;;;5109832;28;20030;-76
2021/05/19 10:49:44;;;;;;;0.20;0.20;;;;;;;;;;5108508;28;20024;-76
2021/05/19 10:52:20;;;;;;;5.65;2.20;;;;;;;;;;5103232;28;20077;-78
2021/05/19 10:57:43;;;;;;;1.48;0.52;;;;;;;;;;5109577;28;20043;-76
2021/05/19 11:00:18;;;;;;;1.33;0.60;;;;;;;;;;5108301;28;20047;-75
2021/05/19 11:03:02;;;;;;;0.60;0.35;;;;;;;;;;5068160;28;20808;-74
2021/05/19 11:06:09;;;;;;;0.98;0.43;;;;;;;;;;5067470;28;20396;-75
2021/05/19 11:08:35;;;;;;;1.08;0.30;;;;;;;;;;5068993;28;20509;-74
2021/05/19 11:11:15;;;;;;;0.65;0.30;;;;;;;;;;5069477;28;20029;-77
2021/05/19 11:13:58;;;;;;;1.48;0.32;;;;;;;;;;5067395;28;20511;-72
2021/05/19 11:18:20;;;;;;;2.45;1.13;;;;;;;;;;5109685;27;20838;-73
2021/05/19 11:21:40;;;;;;;2.03;0.50;;;;;;;;;;5129932;27;20317;-73
2021/05/19 11:24:08;;;;;;;1.08;0.65;;;;;;;;;;5108871;28;20442;-72
2021/05/19 11:26:38;;;;;;;3.40;0.43;;;;;;;;;;5109929;28;20061;-72
2021/05/19 11:29:04;;;;;;;0.90;0.40;;;;;;;;;;5107748;28;20111;-73
2021/05/19 11:31:50;;;;;;;0.40;0.30;;;;;;;;;;5108732;28;20361;-74
2021/05/19 11:34:20;;;;;;;0.95;0.43;;;;;;;;;;5109635;28;20046;-73
2021/05/19 11:36:54;;;;;;;1.25;0.32;;;;;;;;;;5109849;28;20020;-72
2021/05/19 11:39:32;;;;;;;1.90;0.60;;;;;;;;;;5108555;28;20012;-73
2021/05/19 11:43:03;;;;;;;2.20;0.60;;;;;;;;;;5110392;27;20120;-74
2021/05/19 11:45:30;;;;;;;2.33;0.60;;;;;;;;;;5110325;28;20047;-74
2021/05/19 11:47:57;;;;;;;1.35;0.60;;;;;;;;;;5108420;28;20028;-74
2021/05/19 11:51:16;;;;;;;1.65;0.60;;;;;;;;;;5069754;28;20799;-74
2021/05/19 11:53:54;;;;;;;1.73;0.25;;;;;;;;;;5069534;28;20035;-74
2021/05/19 11:56:21;;;;;;;1.17;0.57;;;;;;;;;;5069101;28;20078;-75
2021/05/19 11:58:47;;;;;;;2.17;0.52;;;;;;;;;;5069536;28;20092;-74
2021/05/19 12:01:15;;;;;;;0.25;0.20;;;;;;;;;;5069603;28;20024;-74
2021/05/19 12:03:44;;;;;;;0.65;0.40;;;;;;;;;;5070017;28;20040;-74
2021/05/19 12:06:11;;;;;;;1.98;1.00;;;;;;;;;;5069714;28;20485;-74
2021/05/19 12:08:39;;;;;;;2.83;0.30;;;;;;;;;;5069077;28;20020;-75
2021/05/19 12:11:13;;;;;;;1.17;0.35;;;;;;;;;;5069856;28;20497;-73
2021/05/19 12:13:40;;;;;;;0.98;0.38;;;;;;;;;;5069398;28;20032;-71
2021/05/19 12:16:07;;;;;;;3.45;0.70;;;;;;;;;;5064872;28;20025;-72
2021/05/19 12:18:34;;;;;;;0.32;0.20;;;;;;;;;;5062976;28;20025;-72
2021/05/19 12:21:06;;;;;;;0.88;0.30;;;;;;;;;;5067854;28;20470;-72
2021/05/19 12:23:35;;;;;;;1.02;0.50;;;;;;;;;;5068891;28;20052;-72
2021/05/19 12:26:01;;;;;;;2.70;0.38;;;;;;;;;;5068958;28;20092;-71
2021/05/19 12:28:29;;;;;;;0.88;0.40;;;;;;;;;;5067718;28;20024;-71
2021/05/19 12:31:00;;;;;;;1.55;0.63;;;;;;;;;;5067181;28;20045;-72
2021/05/19 12:33:40;;;;;;;1.80;0.65;;;;;;;;;;5069226;28;20017;-73
2021/05/19 12:36:07;;;;;;;0.35;0.20;;;;;;;;;;5068712;28;20515;-74
2021/05/19 12:38:46;;;;;;;0.60;0.32;;;;;;;;;;5068385;28;20024;-71
2021/05/19 12:41:12;;;;;;;1.40;0.40;;;;;;;;;;5067917;28;20070;-73
2021/05/19 12:43:38;;;;;;;1.65;0.60;;;;;;;;;;5068638;28;20035;-74
2021/05/19 12:46:14;;;;;;;1.38;0.73;;;;;;;;;;5068824;28;20077;-74
2021/05/19 12:48:42;;;;;;;0.28;0.13;;;;;;;;;;5068425;28;20385;-73
2021/05/19 12:51:08;;;;;;;1.80;0.40;;;;;;;;;;5068411;28;20058;-74
2021/05/19 12:53:35;;;;;;;1.38;0.40;;;;;;;;;;5068668;28;20021;-74
2021/05/19 12:56:07;;;;;;;1.75;0.60;;;;;;;;;;5068580;28;20021;-74
2021/05/19 12:58:48;;;;;;;1.35;0.50;;;;;;;;;;5068224;28;20021;-75
2021/05/19 13:01:14;;;;;;;1.20;0.30;;;;;;;;;;5061944;28;20021;-75
2021/05/19 13:03:41;;;;;;;1.35;0.40;;;;;;;;;;5055611;28;20032;-74
2021/05/19 13:06:08;;;;;;;1.25;0.50;;;;;;;;;;5055080;28;20036;-75
2021/05/19 13:08:34;;;;;;;0.70;0.30;;;;;;;;;;5055272;28;20022;-75
2021/05/19 13:11:05;;;;;;;1.05;0.40;;;;;;;;;;5055117;28;20028;-75
2021/05/19 13:13:44;;;;;;;0.95;0.50;;;;;;;;;;5054807;28;20474;-74
2021/05/19 13:16:17;;;;;;;3.90;0.50;;;;;;;;;;5053825;28;20040;-75
2021/05/19 13:18:53;;;;;;;1.13;0.40;;;;;;;;;;5054628;28;20075;-73
2021/05/19 13:21:26;;;;;;;1.55;0.68;;;;;;;;;;5054614;28;20025;-72
2021/05/19 13:24:09;;;;;;;0.50;0.30;;;;;;;;;;5055232;28;20032;-72
2021/05/19 13:26:39;;;;;;;1.42;0.52;;;;;;;;;;5054431;28;20132;-72
2021/05/19 13:29:07;;;;;;;1.13;0.50;;;;;;;;;;5054690;28;20047;-72
2021/05/19 13:31:40;;;;;;;1.95;0.52;;;;;;;;;;5054783;28;20043;-72
2021/05/19 13:34:34;;;;;;;0.43;0.32;;;;;;;;;;5053065;28;20504;-73
2021/05/19 13:37:01;;;;;;;2.42;0.55;;;;;;;;;;5054681;28;20111;-73
2021/05/19 13:39:28;;;;;;;0.55;0.25;;;;;;;;;;5054695;28;20057;-74
2021/05/19 13:41:55;;;;;;;1.60;0.63;;;;;;;;;;5054419;28;20025;-73
2021/05/19 13:44:24;;;;;;;1.42;0.65;;;;;;;;;;5053466;28;20025;-73
2021/05/19 13:46:51;;;;;;;0.90;0.50;;;;;;;;;;5054169;28;20478;-73
2021/05/19 13:51:49;;;;;;;2.13;0.60;;;;;;;;;;5054396;28;20382;-74
2021/05/19 13:54:16;;;;;;;1.45;0.30;;;;;;;;;;5052605;28;20445;-73
2021/05/19 13:56:42;;;;;;;0.20;0.20;;;;;;;;;;5052994;28;20485;-73
2021/05/19 13:59:09;;;;;;;0.73;0.30;;;;;;;;;;5053235;28;20025;-74
2021/05/19 14:01:36;;;;;;;2.70;0.45;;;;;;;;;;5053946;28;20047;-73
2021/05/19 14:04:03;;;;;;;1.08;0.45;;;;;;;;;;5054343;28;20095;-73
2021/05/19 14:06:29;;;;;;;1.85;0.40;;;;;;;;;;5052876;28;20057;-72
2021/05/19 14:08:56;;;;;;;4.13;0.60;;;;;;;;;;5053598;28;20100;-73
2021/05/19 14:11:24;;;;;;;1.83;0.43;;;;;;;;;;5054021;28;20025;-73
2021/05/19 14:29:29;;;;;;;2.58;0.85;;;;;;;;;;5053189;28;20041;-73
2021/05/19 14:31:58;;;;;;;2.35;0.32;;;;;;;;;;5053710;28;20104;-74
2021/05/19 14:34:25;;;;;;;2.45;0.40;;;;;;;;;;5053734;28;20495;-74
2021/05/19 15:00:40;;;;;;;1.60;0.40;;;;;;;;;;5053162;28;20101;-73
2021/05/19 15:03:07;;;;;;;2.95;0.93;;;;;;;;;;5051929;28;20474;-73
2021/05/19 15:05:33;;;;;;;1.55;0.57;;;;;;;;;;5051525;28;20035;-71
2021/05/19 15:07:59;;;;;;;2.55;0.40;;;;;;;;;;5053007;28;20017;-74
2021/05/19 15:10:25;;;;;;;2.05;0.43;;;;;;;;;;5052678;28;20036;-72
2021/05/19 15:12:52;;;;;;;3.03;0.57;;;;;;;;;;5052494;28;20024;-71
2021/05/19 15:15:18;;;;;;;3.85;0.47;;;;;;;;;;5052854;28;20021;-71
2021/05/19 15:17:44;;;;;;;5.32;0.63;;;;;;;;;;5053431;28;20017;-73
2021/05/19 15:20:11;;;;;;;3.40;0.80;;;;;;;;;;5052476;28;20444;-72
2021/05/19 15:22:37;;;;;;;2.55;0.55;;;;;;;;;;5051541;28;20023;-72
2021/05/19 15:25:03;;;;;;;1.83;0.68;;;;;;;;;;5052696;28;20086;-73
2021/05/19 15:27:30;;;;;;;3.65;0.70;;;;;;;;;;5052420;28;20028;-73
2021/05/19 15:29:56;;;;;;;3.60;0.70;;;;;;;;;;5052374;28;20036;-74
2021/05/19 15:32:22;;;;;;;1.85;0.52;;;;;;;;;;5052043;28;20504;-73
2021/05/19 15:34:51;;;;;;;2.35;0.60;;;;;;;;;;5052507;28;20028;-74
2021/05/19 15:37:17;;;;;;;1.35;0.43;;;;;;;;;;5051174;28;20079;-74
2021/05/19 15:39:46;;;;;;;2.35;0.77;;;;;;;;;;5052099;28;20021;-73
2021/05/19 15:42:12;;;;;;;3.33;0.80;;;;;;;;;;5052492;28;20088;-74
2021/05/19 15:44:39;;;;;;;2.33;0.90;;;;;;;;;;5048629;28;20470;-73
2021/05/19 15:47:05;;;;;;;2.03;0.82;;;;;;;;;;5051906;28;20045;-74
2021/05/19 15:49:31;;;;;;;2.25;0.70;;;;;;;;;;5051769;28;20041;-74
2021/05/19 15:51:57;;;;;;;3.10;0.70;;;;;;;;;;5052286;28;20025;-74
2021/05/19 15:54:23;;;;;;;3.83;0.88;;;;;;;;;;5050481;28;20057;-75
2021/05/19 15:56:50;;;;;;;2.78;0.70;;;;;;;;;;5052147;28;20025;-75
2021/05/19 15:59:16;;;;;;;1.40;0.50;;;;;;;;;;5051134;28;20382;-74
2021/05/19 16:01:42;;;;;;;1.20;0.40;;;;;;;;;;5051955;28;20486;-75
2021/05/19 16:04:11;;;;;;;3.22;0.47;;;;;;;;;;5052365;28;20465;-75
2021/05/19 16:06:38;;;;;;;2.38;0.40;;;;;;;;;;5052206;28;20031;-73
2021/05/19 16:09:05;;;;;;;1.27;0.68;;;;;;;;;;5051731;28;20033;-74
2021/05/19 16:11:31;;;;;;;2.58;0.70;;;;;;;;;;5051690;28;20021;-73
2021/05/19 16:13:57;;;;;;;2.30;0.70;;;;;;;;;;5051985;28;20481;-74
2021/05/19 16:16:25;;;;;;;1.90;0.57;;;;;;;;;;5050069;28;20122;-73
2021/05/19 16:18:52;;;;;;;2.03;0.80;;;;;;;;;;5049017;28;20018;-73
2021/05/19 16:21:20;;;;;;;2.05;0.88;;;;;;;;;;5050394;28;20139;-73
2021/05/19 16:23:46;;;;;;;2.00;0.63;;;;;;;;;;5050039;28;20028;-73
2021/05/19 16:26:12;;;;;;;2.10;0.57;;;;;;;;;;5049769;28;20110;-72
2021/05/19 16:28:39;;;;;;;3.05;0.60;;;;;;;;;;5049589;28;20064;-72
2021/05/19 16:31:08;;;;;;;4.28;1.30;;;;;;;;;;5048895;28;20040;-74
2021/05/19 16:36:33;;;;;;;3.83;0.95;;;;;;;;;;5051993;28;20033;-73
2021/05/19 16:38:59;;;;;;;3.75;1.13;;;;;;;;;;5054038;28;20028;-74
2021/05/19 16:41:28;;;;;;;1.98;0.77;;;;;;;;;;5055632;28;20509;-74
2021/05/19 16:43:54;;;;;;;1.25;0.60;;;;;;;;;;5055274;28;20040;-74
2021/05/19 16:46:23;;;;;;;2.15;0.65;;;;;;;;;;5055588;28;20100;-74
2021/05/19 16:48:54;;;;;;;2.22;0.88;;;;;;;;;;5054119;28;20385;-74
2021/05/19 16:51:20;;;;;;;2.28;0.63;;;;;;;;;;5053878;28;20029;-75
2021/05/19 16:53:46;;;;;;;3.95;1.25;;;;;;;;;;5055478;28;20377;-75
2021/05/19 16:56:13;;;;;;;4.82;0.82;;;;;;;;;;5054122;28;20024;-74
2021/05/19 16:58:39;;;;;;;5.50;0.75;;;;;;;;;;5055037;28;20025;-74
2021/05/19 17:01:08;;;;;;;5.88;0.95;;;;;;;;;;5055361;28;20060;-75
2021/05/19 17:06:19;;;;;;;2.75;1.02;;;;;;;;;;5055165;28;20031;-74
2021/05/19 17:08:45;;;;;;;1.45;0.70;;;;;;;;;;5055090;28;20021;-73
2021/05/19 17:11:11;;;;;;;1.75;0.70;;;;;;;;;;5054680;28;20450;-73
2021/05/19 17:13:37;;;;;;;1.65;0.68;;;;;;;;;;5055095;28;20028;-73
2021/05/19 17:16:04;;;;;;;2.53;0.75;;;;;;;;;;5053798;28;20025;-73
2021/05/19 17:18:30;;;;;;;1.65;0.75;;;;;;;;;;5053278;28;20032;-73
2021/05/19 17:20:56;;;;;;;2.60;0.90;;;;;;;;;;5054902;28;20059;-73
2021/05/19 17:25:30;;;;;;;1.77;0.60;;;;;;;;;;5110245;27;20430;-72